Monroe, New Hampshire
Current Conditions -  °F | °C
As of 5:35 AM on Monday 22 Dec 2014 (Local Time) from KCDA Reporting Station
Overcast Overcast  
Wind Chill: 24°   Ceiling: 2600
Heat Index: 24°   Visibility: 10mi
Dew Point: 20°   Wind: 0mph
Humidity: 88%   Direction: NA
Pressure: 30.35"   Gusts: NA
Location:  44.26°N, 72.06°W
Report Text: KCDA 221035Z AUTO 00000KT 10SM OVC026 M05/M06 A3035 RMK AO2 T10471064
Loading
Personal Weather Stations






























Interactive Weather Map New forecast layout! Learn more

10-Day Weather Forecast

Advertisements
Track Severe Weather on mobile